Time;durP1;ratioP1;P1;durP2;ratioP2;P2;SDS_P1;SDS_P2;PMS_P1;PMS_P2;Temp;Humidity;BMP_temperature;BMP_pressure;BME280_temperature;BME280_humidity;BME280_pressure;Samples;Min_cycle;Max_cycle;Signal;HPM_P1;HPM_P2
2023/12/08 00:02:01;;;;;;;0.40;0.40;;;;;;;1.93;100.00;100852.59;5095299;27;96578;-27
2023/12/08 00:04:27;;;;;;;1.38;1.17;;;;;;;1.91;100.00;100850.00;5095690;27;97645;-27
2023/12/08 00:06:52;;;;;;;1.73;1.10;;;;;;;1.86;100.00;100835.91;5095424;27;97887;-27
2023/12/08 00:09:17;;;;;;;2.03;1.52;;;;;;;1.85;100.00;100823.44;5095449;27;97848;-27
2023/12/08 00:11:42;;;;;;;1.13;0.80;;;;;;;1.85;100.00;100819.91;5095762;27;96556;-27
2023/12/08 00:14:08;;;;;;;0.95;0.77;;;;;;;1.85;100.00;100846.59;5095803;27;96697;-28
2023/12/08 00:16:33;;;;;;;0.73;0.63;;;;;;;1.79;100.00;100833.41;5095585;27;97308;-27
2023/12/08 00:18:58;;;;;;;2.22;1.77;;;;;;;1.85;100.00;100830.59;5095337;27;99062;-27
2023/12/08 00:21:25;;;;;;;2.15;1.33;;;;;;;1.81;100.00;100823.56;5095423;27;96650;-27
2023/12/08 00:23:51;;;;;;;2.38;0.38;;;;;;;1.78;100.00;100824.50;5095361;27;96765;-27
2023/12/08 00:26:16;;;;;;;0.38;0.38;;;;;;;1.78;100.00;100810.28;5077474;27;101013;-27
2023/12/08 00:28:42;;;;;;;0.70;0.68;;;;;;;1.69;100.00;100795.38;5098659;27;97887;-28
2023/12/08 00:31:07;;;;;;;5.28;1.05;;;;;;;1.75;100.00;100799.69;5099110;27;96767;-27
2023/12/08 00:33:32;;;;;;;0.90;0.47;;;;;;;1.75;100.00;100797.03;5098600;27;97020;-27
2023/12/08 00:35:58;;;;;;;3.42;1.55;;;;;;;1.83;100.00;100821.72;5098101;27;99571;-27
2023/12/08 00:38:23;;;;;;;0.80;0.80;;;;;;;1.80;100.00;100812.00;5098365;27;97957;-27
2023/12/08 00:40:49;;;;;;;2.42;1.15;;;;;;;1.78;100.00;100818.31;5098685;27;96490;-27
2023/12/08 00:43:15;;;;;;;2.75;2.20;;;;;;;1.82;100.00;100814.66;5080533;27;96752;-27
2023/12/08 00:45:40;;;;;;;2.25;0.90;;;;;;;1.76;100.00;100812.13;5098453;27;97637;-27
2023/12/08 00:48:06;;;;;;;2.67;2.10;;;;;;;1.76;100.00;100801.44;5098102;27;99033;-27
2023/12/08 00:50:31;;;;;;;1.50;1.17;;;;;;;1.79;100.00;100815.59;5097891;27;96863;-27
2023/12/08 00:52:56;;;;;;;2.28;0.70;;;;;;;1.74;100.00;100811.28;5098636;27;96862;-27
2023/12/08 00:55:22;;;;;;;0.88;0.80;;;;;;;1.70;100.00;100808.69;5098062;27;97846;-27
2023/12/08 00:57:47;;;;;;;1.25;0.90;;;;;;;1.72;100.00;100810.44;5098082;27;99201;-28
2023/12/08 01:00:13;;;;;;;2.05;1.20;;;;;;;1.76;100.00;100814.78;5098560;27;96649;-27
2023/12/08 01:02:39;;;;;;;3.63;1.98;;;;;;;1.74;100.00;100805.94;5098658;27;96770;-27
2023/12/08 01:05:05;;;;;;;2.40;1.98;;;;;;;1.73;100.00;100797.06;5097859;27;97209;-26
2023/12/08 01:07:33;;;;;;;1.30;1.20;;;;;;;1.79;100.00;100806.69;5098291;27;99423;-27
2023/12/08 01:09:58;;;;;;;2.13;0.90;;;;;;;1.78;100.00;100800.47;5098408;27;96607;-27
2023/12/08 01:12:23;;;;;;;1.73;1.45;;;;;;;1.80;100.00;100800.44;5097893;27;96907;-27
2023/12/08 01:14:49;;;;;;;1.20;1.10;;;;;;;1.83;100.00;100805.69;5097565;27;98052;-27
2023/12/08 01:17:14;;;;;;;3.30;1.35;;;;;;;1.80;100.00;100793.31;5097723;27;99679;-27
2023/12/08 01:19:39;;;;;;;0.60;0.55;;;;;;;1.78;100.00;100788.94;5097848;27;96633;-28
2023/12/08 01:22:05;;;;;;;2.08;1.25;;;;;;;1.80;100.00;100789.78;5098088;27;96801;-27
2023/12/08 01:24:30;;;;;;;3.17;1.63;;;;;;;1.78;100.00;100786.25;5098044;27;97946;-27
2023/12/08 01:26:55;;;;;;;0.98;0.90;;;;;;;1.81;100.00;100783.50;5097774;27;97359;-27
2023/12/08 01:29:20;;;;;;;2.00;1.50;;;;;;;1.81;100.00;100783.50;5097925;27;96508;-27
2023/12/08 01:31:46;;;;;;;1.90;1.45;;;;;;;1.82;100.00;100780.81;5098340;27;96818;-28
2023/12/08 01:34:11;;;;;;;3.65;1.20;;;;;;;1.84;100.00;100786.13;5097483;27;97450;-28
2023/12/08 01:36:36;;;;;;;1.55;1.00;;;;;;;1.85;100.00;100782.50;5097804;27;97212;-28
2023/12/08 01:39:02;;;;;;;1.25;1.15;;;;;;;1.83;100.00;100779.00;5077859;27;96578;-27
2023/12/08 01:41:27;;;;;;;1.42;1.33;;;;;;;1.80;100.00;100779.09;5097925;27;96723;-27
2023/12/08 01:43:53;;;;;;;1.35;1.25;;;;;;;1.77;100.00;100769.38;5097434;27;97898;-27
2023/12/08 01:46:20;;;;;;;0.80;0.77;;;;;;;1.79;100.00;100782.66;5097433;27;97909;-29
2023/12/08 01:48:46;;;;;;;1.13;0.60;;;;;;;1.74;100.00;100769.47;5078891;27;96676;-27
2023/12/08 01:51:13;;;;;;;1.30;1.10;;;;;;;1.78;100.00;100775.56;5097584;27;96756;-27
2023/12/08 01:53:40;;;;;;;4.72;1.58;;;;;;;1.75;100.00;100755.19;5078306;27;100932;-27
2023/12/08 01:56:07;;;;;;;2.35;1.95;;;;;;;1.77;100.00;100764.03;5078920;27;100958;-28
2023/12/08 01:58:32;;;;;;;1.75;1.00;;;;;;;1.77;100.00;100764.03;5078715;27;96582;-27
2023/12/08 02:00:58;;;;;;;0.88;0.82;;;;;;;1.80;100.00;100758.59;5097571;27;96775;-27
2023/12/08 02:03:26;;;;;;;0.57;0.57;;;;;;;1.79;100.00;100756.84;5096261;27;99246;-27
2023/12/08 02:05:51;;;;;;;2.28;1.90;;;;;;;1.73;100.00;100751.66;5078432;27;101144;-27
2023/12/08 02:08:17;;;;;;;1.15;0.85;;;;;;;1.74;100.00;100731.19;5097655;27;96463;-27
2023/12/08 02:10:43;;;;;;;1.65;1.45;;;;;;;1.72;100.00;100727.66;5078475;27;96827;-27
2023/12/08 02:13:11;;;;;;;3.45;2.00;;;;;;;1.77;100.00;100731.13;5096553;27;99423;-27
2023/12/08 02:15:36;;;;;;;1.30;1.20;;;;;;;1.72;100.00;100717.00;5078214;27;100737;-27
2023/12/08 02:18:02;;;;;;;1.67;1.48;;;;;;;1.68;100.00;100710.88;5097031;27;96642;-28
2023/12/08 02:20:28;;;;;;;1.00;0.90;;;;;;;1.71;100.00;100710.78;5078930;27;96834;-27
2023/12/08 02:22:54;;;;;;;1.65;1.55;;;;;;;1.70;100.00;100698.38;5077987;27;101142;-27
2023/12/08 02:25:19;;;;;;;1.83;1.05;;;;;;;1.76;100.00;100705.31;5096245;27;98694;-27
2023/12/08 02:27:44;;;;;;;1.92;1.73;;;;;;;1.73;100.00;100708.09;5096494;27;97809;-27
2023/12/08 02:30:10;;;;;;;1.98;1.60;;;;;;;1.72;100.00;100701.88;5096940;27;96775;-27
2023/12/08 02:32:41;;;;;;;1.42;1.33;;;;;;;1.76;100.00;100716.88;5096301;27;99245;-27
2023/12/08 02:35:08;;;;;;;3.35;2.17;;;;;;;1.78;100.00;100732.84;5077909;27;100712;-27
2023/12/08 02:37:39;;;;;;;3.03;1.95;;;;;;;1.79;100.00;100737.25;5078055;27;96589;-27
2023/12/08 02:40:06;;;;;;;6.07;3.63;;;;;;;1.80;100.00;100744.38;5097138;27;96733;-27
2023/12/08 02:42:31;;;;;;;2.42;1.52;;;;;;;1.79;100.00;100753.28;5077728;27;101203;-27
2023/12/08 02:44:57;;;;;;;1.95;1.75;;;;;;;1.78;100.00;100752.41;5096632;27;99658;-27
2023/12/08 02:47:22;;;;;;;4.63;1.75;;;;;;;1.76;100.00;100745.38;5096805;27;96396;-27
2023/12/08 02:49:47;;;;;;;1.90;1.67;;;;;;;1.80;100.00;100745.25;5095249;27;96993;-27
2023/12/08 02:52:13;;;;;;;3.15;2.25;;;;;;;1.83;100.00;100745.16;5095700;27;100815;-27
2023/12/08 02:54:38;;;;;;;2.35;1.75;;;;;;;1.83;100.00;100742.47;5095507;27;99189;-27
2023/12/08 02:57:04;;;;;;;3.88;1.77;;;;;;;1.88;100.00;100747.69;5096598;27;96596;-27
2023/12/08 02:59:29;;;;;;;1.77;1.52;;;;;;;1.88;100.00;100745.94;5096182;27;96850;-28
2023/12/08 03:01:54;;;;;;;2.60;1.65;;;;;;;1.85;100.00;100731.78;5096286;27;97925;-27
2023/12/08 03:04:20;;;;;;;1.90;1.77;;;;;;;1.89;100.00;100741.47;5096287;27;97763;-27
2023/12/08 03:06:45;;;;;;;4.65;2.28;;;;;;;1.83;100.00;100721.13;5096355;27;96583;-28
2023/12/08 03:09:10;;;;;;;2.22;1.52;;;;;;;1.90;100.00;100729.84;5096915;27;96822;-27
2023/12/08 03:11:36;;;;;;;1.77;1.42;;;;;;;1.90;100.00;100716.50;5095729;27;99787;-27
2023/12/08 03:14:01;;;;;;;2.78;1.95;;;;;;;1.88;100.00;100704.97;5095886;27;99090;-27
2023/12/08 03:16:26;;;;;;;4.78;1.88;;;;;;;1.90;100.00;100711.16;5095821;27;97268;-27
2023/12/08 03:18:52;;;;;;;2.88;2.25;;;;;;;1.92;100.00;100703.97;5096442;27;96792;-27
2023/12/08 03:21:21;;;;;;;2.17;2.00;;;;;;;1.93;100.00;100705.72;5095890;27;97942;-27
2023/12/08 03:23:47;;;;;;;1.40;1.30;;;;;;;1.87;100.00;100693.41;5095657;27;97770;-27
2023/12/08 03:26:12;;;;;;;2.75;1.85;;;;;;;1.91;100.00;100686.22;5096194;27;96562;-27
2023/12/08 03:28:37;;;;;;;1.42;1.30;;;;;;;1.91;100.00;100679.06;5096533;27;96907;-31
2023/12/08 03:31:03;;;;;;;1.73;1.52;;;;;;;1.91;100.00;100672.84;5095652;27;98358;-27
2023/12/08 03:33:28;;;;;;;1.25;1.15;;;;;;;1.92;100.00;100653.22;5095771;27;99209;-27
2023/12/08 03:35:53;;;;;;;1.17;1.13;;;;;;;1.93;100.00;100641.63;5096269;27;96414;-27
2023/12/08 03:38:19;;;;;;;2.35;1.60;;;;;;;1.93;100.00;100652.28;5096218;27;96759;-27
2023/12/08 03:40:44;;;;;;;4.47;3.05;;;;;;;1.94;100.00;100653.19;5095065;27;99267;-28
2023/12/08 03:43:09;;;;;;;2.97;2.05;;;;;;;1.99;100.00;100673.50;5095158;27;104577;-27
2023/12/08 03:45:35;;;;;;;3.50;2.13;;;;;;;2.00;100.00;100675.25;5095720;27;96647;-28
2023/12/08 03:48:00;;;;;;;3.58;3.22;;;;;;;1.99;100.00;100676.16;5095939;27;96866;-29
2023/12/08 03:50:25;;;;;;;1.55;1.40;;;;;;;1.96;100.00;100670.94;5095438;27;97989;-27
2023/12/08 03:52:54;;;;;;;1.00;0.95;;;;;;;2.02;100.00;100669.84;5095235;27;99506;-27
2023/12/08 03:55:19;;;;;;;2.53;1.45;;;;;;;2.01;100.00;100666.31;5095429;27;96660;-29
2023/12/08 03:57:45;;;;;;;0.85;0.60;;;;;;;2.02;100.00;100662.72;5096236;27;96879;-27
2023/12/08 04:00:11;;;;;;;1.67;1.35;;;;;;;2.03;100.00;100669.81;5095649;27;97455;-27
2023/12/08 04:02:36;;;;;;;2.85;1.55;;;;;;;2.05;100.00;100672.44;5080312;27;102147;-27
2023/12/08 04:05:02;;;;;;;3.58;1.92;;;;;;;2.05;100.00;100669.75;5098895;27;96834;-27
2023/12/08 04:07:27;;;;;;;3.10;1.70;;;;;;;2.04;100.00;100674.22;5099359;27;96627;-28
2023/12/08 04:09:53;;;;;;;0.63;0.55;;;;;;;2.01;100.00;100669.00;5099031;27;97909;-28
2023/12/08 04:12:20;;;;;;;1.35;1.00;;;;;;;2.04;100.00;100665.34;5098668;27;99122;-28
2023/12/08 04:14:45;;;;;;;1.17;1.08;;;;;;;2.05;100.00;100665.31;5080243;27;96575;-27
2023/12/08 04:17:11;;;;;;;1.42;0.80;;;;;;;2.08;100.00;100659.88;5099428;27;96907;-27
2023/12/08 04:19:37;;;;;;;1.10;1.00;;;;;;;2.16;100.00;100672.13;5098655;27;99599;-27
2023/12/08 04:22:02;;;;;;;1.67;1.25;;;;;;;2.09;100.00;100658.06;5099202;27;97821;-27
2023/12/08 04:24:28;;;;;;;0.82;0.82;;;;;;;2.17;100.00;100658.75;5079943;27;96672;-27
2023/12/08 04:26:53;;;;;;;1.58;1.45;;;;;;;2.17;100.00;100664.09;5099032;27;96781;-27
2023/12/08 04:29:19;;;;;;;1.65;1.33;;;;;;;2.18;100.00;100662.28;5097659;27;99688;-27
2023/12/08 04:31:44;;;;;;;1.88;1.27;;;;;;;2.15;100.00;100659.72;5098394;27;99622;-28
2023/12/08 04:34:10;;;;;;;5.57;2.10;;;;;;;2.14;100.00;100666.81;5099055;27;96681;-27
2023/12/08 04:36:35;;;;;;;3.08;2.58;;;;;;;2.15;100.00;100675.75;5098898;27;96753;-28
2023/12/08 04:39:00;;;;;;;0.70;0.40;;;;;;;2.16;100.00;100669.47;5098429;27;97876;-27
2023/12/08 04:41:26;;;;;;;0.88;0.80;;;;;;;2.20;100.00;100674.66;5098536;27;97855;-27
2023/12/08 04:43:51;;;;;;;1.60;1.17;;;;;;;2.19;100.00;100658.66;5098472;27;96640;-27
2023/12/08 04:46:18;;;;;;;1.30;1.20;;;;;;;2.26;100.00;100661.09;5099120;27;96821;-27
2023/12/08 04:48:43;;;;;;;1.80;1.13;;;;;;;2.22;100.00;100656.78;5098227;27;98959;-28
2023/12/08 04:51:08;;;;;;;2.30;1.23;;;;;;;2.26;100.00;100652.22;5079612;27;99013;-27
2023/12/08 04:53:34;;;;;;;3.00;2.03;;;;;;;2.18;100.00;100643.56;5097392;27;96855;-27
2023/12/08 04:55:59;;;;;;;2.35;2.10;;;;;;;2.18;100.00;100641.78;5098719;27;96520;-27
2023/12/08 04:58:24;;;;;;;1.75;1.35;;;;;;;2.24;100.00;100643.38;5097931;27;97479;-27
2023/12/08 05:00:50;;;;;;;1.20;0.98;;;;;;;2.26;100.00;100637.06;5098021;27;99317;-27
2023/12/08 05:03:16;;;;;;;1.33;1.23;;;;;;;2.31;100.00;100652.94;5098158;27;96657;-28
2023/12/08 05:05:41;;;;;;;1.95;1.65;;;;;;;2.31;100.00;100648.50;5098451;27;96769;-28
2023/12/08 05:08:07;;;;;;;2.50;1.80;;;;;;;2.30;100.00;100652.09;5097979;27;97476;-28
2023/12/08 05:10:32;;;;;;;1.08;1.02;;;;;;;2.28;100.00;100653.06;5079622;27;99112;-27
2023/12/08 05:12:57;;;;;;;1.30;1.05;;;;;;;2.33;100.00;100651.09;5096559;27;96597;-27
2023/12/08 05:15:23;;;;;;;4.63;2.20;;;;;;;2.27;100.00;100643.28;5079721;27;96822;-27
2023/12/08 05:17:49;;;;;;;1.85;1.23;;;;;;;2.35;100.00;100649.25;5097542;27;97918;-27
2023/12/08 05:20:14;;;;;;;3.70;1.70;;;;;;;2.31;100.00;100653.84;5097713;27;97795;-27
2023/12/08 05:22:40;;;;;;;1.83;0.77;;;;;;;2.37;100.00;100657.25;5098239;27;96709;-27
2023/12/08 05:25:05;;;;;;;2.63;0.90;;;;;;;2.39;100.00;100652.75;5097684;27;96923;-27
2023/12/08 05:27:31;;;;;;;1.70;1.45;;;;;;;2.36;100.00;100652.81;5097400;27;99981;-28
2023/12/08 05:29:56;;;;;;;5.22;2.47;;;;;;;2.39;100.00;100650.94;5097786;27;97794;-27
2023/12/08 05:32:21;;;;;;;3.53;2.13;;;;;;;2.37;100.00;100655.44;5097870;27;96692;-29
2023/12/08 05:34:47;;;;;;;1.63;1.08;;;;;;;2.38;100.00;100649.16;5098375;27;96789;-27
2023/12/08 05:37:12;;;;;;;1.00;0.73;;;;;;;2.46;100.00;100657.84;5097671;27;97910;-27
2023/12/08 05:39:37;;;;;;;1.45;1.08;;;;;;;2.47;100.00;100658.72;5097505;27;97825;-28
2023/12/08 05:42:03;;;;;;;1.80;1.63;;;;;;;2.46;100.00;100651.63;5097132;27;96532;-28
2023/12/08 05:44:28;;;;;;;3.28;2.45;;;;;;;2.46;100.00;100656.97;5097434;27;96853;-28
2023/12/08 05:46:54;;;;;;;0.93;0.80;;;;;;;2.43;100.00;100649.03;5097511;27;97951;-27
2023/12/08 05:49:19;;;;;;;2.40;1.45;;;;;;;2.44;100.00;100651.66;5097393;27;97661;-27
2023/12/08 05:51:44;;;;;;;0.80;0.80;;;;;;;2.48;100.00;100658.66;5097395;27;96603;-27
2023/12/08 05:54:10;;;;;;;2.28;1.70;;;;;;;2.48;100.00;100656.00;5097400;27;96886;-27
2023/12/08 05:56:35;;;;;;;4.80;2.28;;;;;;;2.48;100.00;100656.00;5097197;27;97530;-27
2023/12/08 05:59:01;;;;;;;3.47;1.95;;;;;;;2.48;100.00;100664.00;5097247;27;99087;-27
2023/12/08 06:01:28;;;;;;;5.85;2.15;;;;;;;2.42;100.00;100655.31;5097641;27;96449;-27
2023/12/08 06:03:53;;;;;;;1.98;1.27;;;;;;;2.45;100.00;100660.53;5078660;27;96909;-27
2023/12/08 06:06:18;;;;;;;1.45;0.93;;;;;;;2.46;100.00;100665.00;5096676;27;97881;-27
2023/12/08 06:08:44;;;;;;;2.00;1.80;;;;;;;2.43;100.00;100662.38;5096796;27;99436;-27
2023/12/08 06:11:09;;;;;;;3.55;2.03;;;;;;;2.48;100.00;100672.03;5097156;27;96723;-28
2023/12/08 06:13:34;;;;;;;2.05;1.40;;;;;;;2.51;100.00;100679.09;5097190;27;96843;-27
2023/12/08 06:16:00;;;;;;;1.98;1.38;;;;;;;2.53;100.00;100685.25;5096654;27;99428;-27
2023/12/08 06:18:25;;;;;;;3.72;1.60;;;;;;;2.48;100.00;100671.13;5096955;27;97805;-27
2023/12/08 06:20:51;;;;;;;0.80;0.80;;;;;;;2.51;100.00;100671.94;5096863;27;96756;-28
2023/12/08 06:23:16;;;;;;;2.58;0.90;;;;;;;2.53;100.00;100686.13;5097296;27;96783;-27
2023/12/08 06:25:41;;;;;;;3.75;2.20;;;;;;;2.48;100.00;100666.69;5096632;27;97347;-27
2023/12/08 06:28:07;;;;;;;1.13;0.93;;;;;;;2.56;100.00;100674.47;5096526;27;101746;-27
2023/12/08 06:30:32;;;;;;;2.55;1.17;;;;;;;2.59;100.00;100679.69;5096917;27;96734;-27
2023/12/08 06:32:57;;;;;;;2.17;1.92;;;;;;;2.57;100.00;100675.31;5097079;27;96754;-28
2023/12/08 06:35:23;;;;;;;5.53;1.42;;;;;;;2.55;100.00;100670.03;5096722;27;98076;-27
2023/12/08 06:37:50;;;;;;;1.67;1.27;;;;;;;2.61;100.00;100685.88;5096781;27;97821;-27
2023/12/08 06:40:15;;;;;;;4.90;2.13;;;;;;;2.58;100.00;100674.44;5096604;27;96583;-27
2023/12/08 06:42:41;;;;;;;1.50;1.40;;;;;;;2.63;100.00;100680.50;5096733;27;96965;-27
2023/12/08 06:45:07;;;;;;;3.20;2.10;;;;;;;2.58;100.00;100671.75;5096560;27;98444;-27
2023/12/08 06:47:33;;;;;;;1.77;1.55;;;;;;;2.61;100.00;100680.53;5078091;27;100912;-27
2023/12/08 06:49:58;;;;;;;3.17;1.60;;;;;;;2.61;100.00;100685.88;5096386;27;96825;-27
2023/12/08 06:52:24;;;;;;;2.20;2.00;;;;;;;2.61;100.00;100687.69;5096771;27;98134;-27
2023/12/08 06:54:49;;;;;;;3.17;2.33;;;;;;;2.66;100.00;100694.63;5095255;27;97956;-27
2023/12/08 06:57:15;;;;;;;5.40;2.20;;;;;;;2.63;100.00;100670.66;5096054;27;97823;-27
2023/12/08 06:59:40;;;;;;;2.75;2.17;;;;;;;2.69;100.00;100674.94;5096742;27;96797;-27
2023/12/08 07:02:05;;;;;;;2.83;0.95;;;;;;;2.69;100.00;100683.84;5096596;27;96767;-27
2023/12/08 07:04:31;;;;;;;4.70;3.58;;;;;;;2.67;100.00;100672.34;5095975;27;99400;-29
2023/12/08 07:06:57;;;;;;;2.53;2.30;;;;;;;2.66;100.00;100667.88;5077342;27;100765;-27
2023/12/08 07:09:22;;;;;;;6.38;2.90;;;;;;;2.68;100.00;100667.84;5096539;27;96658;-28
2023/12/08 07:11:48;;;;;;;5.68;2.00;;;;;;;2.68;100.00;100674.06;5096508;27;96630;-28
2023/12/08 07:14:13;;;;;;;2.60;2.00;;;;;;;2.72;100.00;100686.44;5095818;27;99581;-27
2023/12/08 07:16:42;;;;;;;1.77;1.42;;;;;;;2.72;100.00;100697.13;5096052;27;97842;-27
2023/12/08 07:19:07;;;;;;;2.67;1.75;;;;;;;2.70;100.00;100688.28;5077279;27;96770;-27
2023/12/08 07:21:32;;;;;;;1.73;1.50;;;;;;;2.77;100.00;100688.97;5096296;27;96837;-27
2023/12/08 07:23:58;;;;;;;1.45;1.23;;;;;;;2.78;100.00;100682.66;5095785;27;97872;-27
2023/12/08 07:26:24;;;;;;;1.77;1.63;;;;;;;2.83;100.00;100695.91;5095562;27;97621;-27
2023/12/08 07:28:49;;;;;;;1.77;1.65;;;;;;;2.83;100.00;100696.75;5096110;27;96780;-27
2023/12/08 07:31:15;;;;;;;2.03;1.73;;;;;;;2.81;100.00;100682.56;5096310;27;96763;-27
2023/12/08 07:33:40;;;;;;;1.15;1.05;;;;;;;2.88;100.00;100696.63;5095734;27;97256;-27
2023/12/08 07:36:06;;;;;;;1.98;1.80;;;;;;;2.88;100.00;100700.16;5097478;27;97805;-28
2023/12/08 07:38:31;;;;;;;3.22;2.40;;;;;;;2.89;100.00;100701.06;5081144;27;96767;-27
2023/12/08 07:40:57;;;;;;;1.98;1.58;;;;;;;2.91;100.00;100701.91;5099456;27;96784;-27
2023/12/08 07:43:22;;;;;;;4.65;1.88;;;;;;;2.84;100.00;100695.84;5098763;27;99313;-27
2023/12/08 07:45:48;;;;;;;2.35;1.98;;;;;;;2.95;100.00;100714.22;5099404;27;97751;-27
2023/12/08 07:48:13;;;;;;;1.88;1.13;;;;;;;2.95;100.00;100716.91;5099603;27;96756;-27
2023/12/08 07:50:38;;;;;;;1.85;1.33;;;;;;;2.95;100.00;100725.78;5099229;27;96828;-27
2023/12/08 07:53:04;;;;;;;2.08;1.13;;;;;;;2.91;100.00;100713.47;5098979;27;99379;-28
2023/12/08 07:55:29;;;;;;;3.20;2.10;;;;;;;2.99;100.00;100734.59;5098940;27;97362;-28
2023/12/08 07:57:54;;;;;;;3.33;1.73;;;;;;;2.95;100.00;100719.56;5080823;27;96563;-27
2023/12/08 08:00:21;;;;;;;2.55;1.77;;;;;;;3.01;100.00;100734.56;5099882;27;96744;-27
2023/12/08 08:02:46;;;;;;;2.75;1.95;;;;;;;3.00;100.00;100735.47;5099163;27;98109;-27
2023/12/08 08:05:13;;;;;;;3.83;3.30;;;;;;;3.04;100.00;100735.34;5098752;27;99341;-27
2023/12/08 08:07:38;;;;;;;1.52;1.25;;;;;;;3.06;100.00;100729.94;5098758;27;96606;-27
2023/12/08 08:10:04;;;;;;;3.28;1.98;;;;;;;3.08;100.00;100736.13;5099162;27;96775;-28
2023/12/08 08:12:32;;;;;;;2.08;1.15;;;;;;;3.11;100.00;100741.38;5098799;27;97894;-27
2023/12/08 08:14:57;;;;;;;7.22;3.40;;;;;;;3.17;100.00;100735.78;5080236;27;101318;-27
2023/12/08 08:17:23;;;;;;;8.30;2.13;;;;;;;3.16;100.00;100736.72;5098850;27;96636;-28
2023/12/08 08:19:48;;;;;;;1.50;1.25;;;;;;;3.17;100.00;100734.03;5098925;27;96837;-28
2023/12/08 08:22:14;;;;;;;4.78;1.83;;;;;;;3.27;100.00;100747.09;5098886;27;97941;-27
2023/12/08 08:24:39;;;;;;;2.03;1.65;;;;;;;3.30;100.00;100741.63;5079934;27;100795;-28
2023/12/08 08:27:05;;;;;;;2.75;1.30;;;;;;;3.28;100.00;100739.00;5099072;27;96431;-27
2023/12/08 08:29:30;;;;;;;1.63;1.42;;;;;;;3.35;100.00;100742.34;5098819;27;96946;-27
2023/12/08 08:31:55;;;;;;;5.10;2.97;;;;;;;3.39;100.00;100754.72;5098040;27;99282;-27
2023/12/08 08:34:21;;;;;;;2.38;1.63;;;;;;;3.38;100.00;100748.50;5098495;27;97241;-27
2023/12/08 08:36:46;;;;;;;2.13;1.48;;;;;;;3.43;100.00;100742.97;5098828;27;96627;-28
2023/12/08 08:39:12;;;;;;;1.48;0.95;;;;;;;3.49;100.00;100741.91;5098743;27;96772;-27
2023/12/08 08:41:37;;;;;;;6.30;2.05;;;;;;;3.53;100.00;100757.81;5079707;27;101274;-28
2023/12/08 08:44:03;;;;;;;2.15;1.63;;;;;;;3.57;100.00;100756.75;5098538;27;97606;-28
2023/12/08 08:46:29;;;;;;;2.45;1.80;;;;;;;3.60;100.00;100766.50;5098435;27;96523;-28
2023/12/08 08:48:55;;;;;;;5.20;2.67;;;;;;;3.60;100.00;100766.50;5099046;27;96774;-27
2023/12/08 08:51:21;;;;;;;2.75;1.90;;;;;;;3.65;100.00;100767.22;5098055;27;97526;-27
2023/12/08 08:53:49;;;;;;;3.50;2.38;;;;;;;3.65;100.00;100767.22;5097477;27;97356;-27
2023/12/08 08:56:15;;;;;;;2.70;1.80;;;;;;;3.68;100.00;100768.91;5079300;27;96629;-27
2023/12/08 08:58:40;;;;;;;3.60;2.55;;;;;;;3.71;100.00;100783.06;5079806;27;96723;-28
2023/12/08 09:01:07;;;;;;;1.90;1.02;;;;;;;3.79;100.00;100783.69;5098086;27;98750;-27
2023/12/08 09:03:32;;;;;;;6.13;2.60;;;;;;;3.74;100.00;100766.91;5097860;27;99288;-28
2023/12/08 09:05:57;;;;;;;3.70;2.50;;;;;;;3.78;100.00;100775.69;5098264;27;96599;-28
2023/12/08 09:08:23;;;;;;;3.80;1.95;;;;;;;3.86;100.00;100778.09;5098191;27;96771;-27
2023/12/08 09:10:50;;;;;;;3.08;1.55;;;;;;;3.85;100.00;100765.66;5097954;27;97933;-28
2023/12/08 09:13:16;;;;;;;2.20;1.52;;;;;;;3.88;100.00;100778.94;5097919;27;99401;-27
2023/12/08 09:15:43;;;;;;;3.40;2.70;;;;;;;3.87;100.00;100769.16;5079430;27;96570;-28
2023/12/08 09:18:08;;;;;;;3.85;2.42;;;;;;;3.93;100.00;100785.91;5098089;27;96826;-27
2023/12/08 09:20:37;;;;;;;2.45;1.80;;;;;;;3.98;100.00;100786.63;5097158;27;99015;-27
2023/12/08 09:23:03;;;;;;;4.65;2.40;;;;;;;3.98;100.00;100789.28;5078905;27;101195;-28
2023/12/08 09:25:28;;;;;;;1.55;1.23;;;;;;;4.07;100.00;100788.06;5098098;27;96558;-29
2023/12/08 09:27:54;;;;;;;1.95;1.33;;;;;;;4.10;100.00;100773.69;5098179;27;96852;-27
2023/12/08 09:30:19;;;;;;;3.95;1.88;;;;;;;4.13;100.00;100787.88;5097404;27;99737;-27
2023/12/08 09:32:45;;;;;;;10.07;2.70;;;;;;;4.15;100.00;100783.31;5097701;27;97383;-27
2023/12/08 09:35:10;;;;;;;2.60;1.95;;;;;;;4.23;100.00;100783.03;5098020;27;96515;-27
2023/12/08 09:37:35;;;;;;;7.32;2.88;;;;;;;4.26;100.00;100785.59;5098256;27;96890;-28
2023/12/08 09:40:01;;;;;;;1.65;1.25;;;;;;;4.31;100.00;100786.31;5097137;27;101051;-27
2023/12/08 09:42:36;;;;;;;8.98;2.35;;;;;;;4.38;100.00;100792.31;5097542;27;97308;-28
2023/12/08 09:45:05;;;;;;;1.77;1.45;;;;;;;4.47;100.00;100800.03;5078600;27;96634;-28
2023/12/08 09:47:33;;;;;;;5.90;1.88;;;;;;;4.52;100.00;100800.72;5079025;27;96905;-27
2023/12/08 09:50:01;;;;;;;3.40;2.70;;;;;;;4.56;100.00;100804.19;5097274;27;97963;-27
2023/12/08 09:52:29;;;;;;;3.38;1.80;;;;;;;4.59;100.00;100799.56;5078602;27;100751;-27
2023/12/08 09:54:55;;;;;;;3.85;2.33;;;;;;;4.65;100.00;100803.84;5096661;27;96730;-28
2023/12/08 09:57:21;;;;;;;5.00;2.20;;;;;;;4.75;100.00;100809.72;5097472;27;96899;-27
2023/12/08 09:59:47;;;;;;;3.38;2.33;;;;;;;4.77;100.00;100815.91;5096477;27;97607;-26
2023/12/08 10:02:13;;;;;;;2.70;1.98;;;;;;;4.82;100.00;100809.44;5078951;27;100940;-27
2023/12/08 10:04:39;;;;;;;6.10;2.55;;;;;;;4.81;100.00;100801.44;5097160;27;96627;-28
2023/12/08 10:07:08;;;;;;;5.10;2.85;;;;;;;4.81;100.00;100794.25;5097325;27;96808;-27
2023/12/08 10:09:35;;;;;;;16.88;2.67;;;;;;;4.79;100.00;100790.78;5077918;27;101030;-27
2023/12/08 10:12:00;;;;;;;5.85;1.70;;;;;;;4.89;100.00;100819.00;5096918;27;97806;-27
2023/12/08 10:14:25;;;;;;;11.05;2.00;;;;;;;4.92;100.00;100819.81;5097285;27;96536;-27
2023/12/08 10:16:52;;;;;;;10.73;2.47;;;;;;;4.97;100.00;100829.44;5097246;27;96709;-27
2023/12/08 10:19:20;;;;;;;5.63;2.20;;;;;;;4.99;100.00;100826.69;5096528;27;99353;-27
2023/12/08 10:21:58;;;;;;;4.15;1.88;;;;;;;5.03;100.00;100823.84;5078000;27;100685;-28
2023/12/08 10:24:23;;;;;;;8.10;2.58;;;;;;;5.04;100.00;100825.56;5097114;27;96728;-27
2023/12/08 10:26:49;;;;;;;3.10;1.30;;;;;;;5.06;100.00;100823.72;5097242;27;96872;-28
2023/12/08 10:29:16;;;;;;;2.60;2.00;;;;;;;5.10;100.00;100819.06;5096817;27;97522;-26
2023/12/08 10:31:42;;;;;;;4.13;1.88;;;;;;;5.08;100.00;100804.88;5096558;27;97884;-27
2023/12/08 10:34:07;;;;;;;6.47;3.17;;;;;;;5.13;100.00;100807.38;5096617;27;96445;-27
2023/12/08 10:36:32;;;;;;;1.90;1.73;;;;;;;5.19;100.00;100807.97;5096957;27;96931;-27
2023/12/08 10:38:57;;;;;;;3.13;2.17;;;;;;;5.21;100.00;100808.78;5096579;27;99092;-28
2023/12/08 10:41:23;;;;;;;4.30;2.65;;;;;;;5.25;100.00;100806.88;5096494;27;97376;-27
2023/12/08 10:43:48;;;;;;;1.92;1.48;;;;;;;5.29;100.00;100805.78;5096702;27;96519;-27
2023/12/08 10:46:14;;;;;;;2.92;1.90;;;;;;;5.33;100.00;100813.66;5096415;27;96867;-27
2023/12/08 10:48:40;;;;;;;8.98;2.60;;;;;;;5.35;100.00;100807.38;5096679;27;97177;-27
2023/12/08 10:51:13;;;;;;;7.95;2.75;;;;;;;5.43;100.00;100821.34;5077833;27;100857;-27
2023/12/08 10:53:38;;;;;;;3.60;1.45;;;;;;;5.44;100.00;100807.88;5077350;27;96807;-28
2023/12/08 10:56:06;;;;;;;3.90;2.28;;;;;;;5.49;100.00;100802.31;5096787;27;96490;-27
2023/12/08 10:58:35;;;;;;;6.05;2.92;;;;;;;5.51;100.00;100795.94;5077097;27;102098;-28
2023/12/08 11:01:05;;;;;;;4.88;3.13;;;;;;;5.60;100.00;100812.59;5077296;27;100741;-27
2023/12/08 11:03:32;;;;;;;6.85;2.35;;;;;;;5.57;100.00;100807.38;5077761;27;96658;-27
2023/12/08 11:06:04;;;;;;;8.68;2.70;;;;;;;5.65;100.00;100816.88;5077765;27;96972;-28
2023/12/08 11:08:30;;;;;;;2.80;1.88;;;;;;;5.67;100.00;100816.78;5096141;27;97457;-27
2023/12/08 11:10:58;;;;;;;8.20;3.67;;;;;;;5.67;100.00;100819.47;5094661;27;99064;-26
2023/12/08 11:13:28;;;;;;;4.13;2.72;;;;;;;5.75;100.00;100836.16;5077326;27;96852;-27
2023/12/08 11:16:22;;;;;;;3.20;2.25;;;;;;;5.80;100.00;100834.16;5078127;27;96953;-27
2023/12/08 11:18:49;;;;;;;3.70;2.15;;;;;;;5.82;100.00;100834.09;5077265;27;101053;-27